createdAt,value
2018-06-27T00:01:31.916Z,3.77
2018-06-27T00:03:59.048Z,5.10
2018-06-27T00:06:26.209Z,3.73
2018-06-27T00:08:53.337Z,4.03
2018-06-27T00:11:20.494Z,4.37
2018-06-27T00:13:47.588Z,4.83
2018-06-27T00:16:14.755Z,4.20
2018-06-27T00:18:41.900Z,3.90
2018-06-27T00:21:09.032Z,3.93
2018-06-27T00:23:36.177Z,4.17
2018-06-27T00:26:03.325Z,4.40
2018-06-27T00:28:30.476Z,4.30
2018-06-27T00:30:57.577Z,3.60
2018-06-27T00:33:24.719Z,4.23
2018-06-27T00:35:51.936Z,4.17
2018-06-27T00:38:19.090Z,4.63
2018-06-27T00:40:46.304Z,3.83
2018-06-27T00:43:14.212Z,4.90
2018-06-27T00:45:41.370Z,4.07
2018-06-27T00:48:09.029Z,4.40
2018-06-27T00:50:36.213Z,4.37
2018-06-27T00:53:03.469Z,4.70
2018-06-27T00:55:30.787Z,4.60
2018-06-27T00:57:58.000Z,3.93
2018-06-27T01:00:25.134Z,4.50
2018-06-27T01:02:52.352Z,4.50
2018-06-27T01:05:19.473Z,4.67
2018-06-27T01:07:46.584Z,4.37
2018-06-27T01:10:13.737Z,4.70
2018-06-27T01:12:40.856Z,4.70
2018-06-27T01:15:08.029Z,4.70
2018-06-27T01:17:35.162Z,4.20
2018-06-27T01:20:02.612Z,3.47
2018-06-27T01:22:29.746Z,4.13
2018-06-27T01:24:56.857Z,4.37
2018-06-27T01:27:24.000Z,4.60
2018-06-27T01:29:51.185Z,3.73
2018-06-27T01:32:18.297Z,4.30
2018-06-27T01:34:45.453Z,3.40
2018-06-27T01:37:12.584Z,4.10
2018-06-27T01:39:39.681Z,3.90
2018-06-27T01:42:06.829Z,4.37
2018-06-27T01:44:34.005Z,4.47
2018-06-27T01:47:01.166Z,4.77
2018-06-27T01:49:28.306Z,5.17
2018-06-27T01:51:55.452Z,4.97
2018-06-27T01:54:22.556Z,4.97
2018-06-27T01:56:49.717Z,4.77
2018-06-27T01:59:16.886Z,4.80
2018-06-27T02:01:44.027Z,4.90
2018-06-27T02:04:11.174Z,4.47
2018-06-27T02:06:38.280Z,4.73
2018-06-27T02:09:07.045Z,4.37
2018-06-27T02:11:34.160Z,5.50
2018-06-27T02:14:01.347Z,5.27
2018-06-27T02:16:28.452Z,5.17
2018-06-27T02:18:55.652Z,5.07
2018-06-27T02:21:22.840Z,5.20
2018-06-27T02:23:50.005Z,6.53
2018-06-27T02:26:17.113Z,5.80
2018-06-27T02:28:44.364Z,6.10
2018-06-27T02:31:11.521Z,5.53
2018-06-27T02:33:38.636Z,5.27
2018-06-27T02:36:05.989Z,5.00
2018-06-27T02:38:33.109Z,5.40
2018-06-27T02:41:00.297Z,6.03
2018-06-27T02:43:27.404Z,7.73
2018-06-27T02:45:54.577Z,6.37
2018-06-27T02:48:21.777Z,6.07
2018-06-27T02:50:48.901Z,6.20
2018-06-27T02:53:16.070Z,6.47
2018-06-27T02:55:43.324Z,6.53
2018-06-27T02:58:10.452Z,6.67
2018-06-27T03:00:37.578Z,6.63
2018-06-27T03:03:04.894Z,7.13
2018-06-27T03:05:32.052Z,7.27
2018-06-27T03:07:59.276Z,6.47
2018-06-27T03:10:26.421Z,5.57
2018-06-27T03:12:53.580Z,6.53
2018-06-27T03:15:20.713Z,5.40
2018-06-27T03:17:47.884Z,5.57
2018-06-27T03:20:15.098Z,6.30
2018-06-27T03:22:42.193Z,5.40
2018-06-27T03:25:09.328Z,6.27
2018-06-27T03:27:36.428Z,5.40
2018-06-27T03:30:03.937Z,5.53
2018-06-27T03:32:31.149Z,4.90
2018-06-27T03:34:58.248Z,5.33
2018-06-27T03:37:25.420Z,4.70
2018-06-27T03:39:52.573Z,5.20
2018-06-27T03:42:19.783Z,5.40
2018-06-27T03:44:46.909Z,6.10
2018-06-27T03:47:14.033Z,6.17
2018-06-27T03:49:41.175Z,5.87
2018-06-27T03:52:08.385Z,6.50
2018-06-27T03:54:35.494Z,6.30
2018-06-27T03:57:02.603Z,7.57
2018-06-27T03:59:29.773Z,7.50
2018-06-27T04:01:56.932Z,6.70
2018-06-27T04:04:24.078Z,7.20
2018-06-27T04:06:51.257Z,5.27
2018-06-27T04:09:18.366Z,5.33
2018-06-27T04:11:45.453Z,4.73
2018-06-27T04:14:12.581Z,5.97
2018-06-27T04:16:39.779Z,5.53
2018-06-27T04:19:06.921Z,5.20
2018-06-27T04:21:34.053Z,4.93
2018-06-27T04:24:01.204Z,5.27
2018-06-27T04:26:28.336Z,5.60
2018-06-27T04:28:55.570Z,6.50
2018-06-27T04:31:22.692Z,6.27
2018-06-27T04:33:49.869Z,6.33
2018-06-27T04:36:17.074Z,6.63
2018-06-27T04:38:44.240Z,6.87
2018-06-27T04:41:11.358Z,8.10
2018-06-27T04:43:38.476Z,7.17
2018-06-27T04:46:05.620Z,6.77
2018-06-27T04:48:39.783Z,8.20
2018-06-27T04:51:06.957Z,7.20
2018-06-27T04:53:34.021Z,6.33
2018-06-27T04:56:01.214Z,6.70
2018-06-27T04:58:28.293Z,6.60
2018-06-27T05:00:55.429Z,7.50
2018-06-27T05:03:22.565Z,7.10
2018-06-27T05:05:49.669Z,6.77
2018-06-27T05:08:16.788Z,6.43
2018-06-27T05:10:43.894Z,7.60
2018-06-27T05:13:10.973Z,6.57
2018-06-27T05:15:38.139Z,6.70
2018-06-27T05:18:05.261Z,6.90
2018-06-27T05:20:32.429Z,6.20
2018-06-27T05:22:59.521Z,6.20
2018-06-27T05:25:26.664Z,8.27
2018-06-27T05:27:53.827Z,7.37
2018-06-27T05:30:20.957Z,7.80
2018-06-27T05:32:48.116Z,15.70
2018-06-27T05:35:15.278Z,8.57
2018-06-27T05:37:42.503Z,8.90
2018-06-27T05:40:09.712Z,7.27
2018-06-27T05:42:36.911Z,6.60
2018-06-27T05:45:04.329Z,5.70
2018-06-27T05:47:31.443Z,6.20
2018-06-27T05:49:58.580Z,5.53
2018-06-27T05:52:25.755Z,6.60
2018-06-27T05:54:58.704Z,5.97
2018-06-27T05:57:25.856Z,6.87
2018-06-27T05:59:53.007Z,5.77
2018-06-27T06:02:20.192Z,5.40
2018-06-27T06:04:47.480Z,5.60
2018-06-27T06:07:14.580Z,6.10
2018-06-27T06:09:41.666Z,5.37
2018-06-27T06:12:08.817Z,4.13
2018-06-27T06:14:35.956Z,5.70
2018-06-27T06:17:03.072Z,5.03
2018-06-27T06:19:30.174Z,5.17
2018-06-27T06:21:58.206Z,5.93
2018-06-27T06:24:25.375Z,6.27
2018-06-27T06:26:52.544Z,5.73
2018-06-27T06:29:19.683Z,7.90
2018-06-27T06:31:46.832Z,4.40
2018-06-27T06:34:13.949Z,5.13
2018-06-27T06:36:41.131Z,5.07
2018-06-27T06:39:08.703Z,3.67
2018-06-27T06:41:35.940Z,4.83
2018-06-27T06:44:03.416Z,3.43
2018-06-27T06:46:30.548Z,3.73
2018-06-27T06:48:57.637Z,3.37
2018-06-27T06:51:24.844Z,3.90
2018-06-27T06:53:51.999Z,4.50
2018-06-27T06:56:19.104Z,3.40
2018-06-27T06:58:48.997Z,3.27
2018-06-27T07:01:16.085Z,3.90
2018-06-27T07:03:43.222Z,3.00
2018-06-27T07:06:10.364Z,3.80
2018-06-27T07:08:37.485Z,3.17
2018-06-27T07:11:04.664Z,2.90
2018-06-27T07:13:31.745Z,2.83
2018-06-27T07:15:58.904Z,2.97
2018-06-27T07:18:26.469Z,2.93
2018-06-27T07:20:53.655Z,2.77
2018-06-27T07:23:20.796Z,2.67
2018-06-27T07:25:47.952Z,3.30
2018-06-27T07:28:15.097Z,2.77
2018-06-27T07:30:42.345Z,2.70
2018-06-27T07:33:09.497Z,2.70
2018-06-27T07:35:36.704Z,2.60
2018-06-27T07:38:03.853Z,2.70
2018-06-27T07:40:31.017Z,2.67
2018-06-27T07:42:58.145Z,2.20
2018-06-27T07:45:25.297Z,2.27
2018-06-27T07:47:52.432Z,2.30
2018-06-27T07:50:19.658Z,2.63
2018-06-27T07:52:46.828Z,2.60
2018-06-27T07:55:13.984Z,2.80
2018-06-27T07:57:41.149Z,2.90
2018-06-27T08:00:08.797Z,2.10
2018-06-27T08:02:35.925Z,2.20
2018-06-27T08:05:03.280Z,2.50
2018-06-27T08:07:30.376Z,2.90
2018-06-27T08:09:57.540Z,3.00
2018-06-27T08:12:24.731Z,2.33
2018-06-27T08:14:51.799Z,3.17
2018-06-27T08:17:18.997Z,2.80
2018-06-27T08:19:46.113Z,2.20
2018-06-27T08:22:13.269Z,2.30
2018-06-27T08:24:40.416Z,2.63
2018-06-27T08:27:07.576Z,2.37
2018-06-27T08:29:34.758Z,2.20
2018-06-27T08:32:01.934Z,2.70
2018-06-27T08:34:29.037Z,3.13
2018-06-27T08:36:56.213Z,2.80
2018-06-27T08:39:23.379Z,2.70
2018-06-27T08:41:50.534Z,2.57
2018-06-27T08:44:17.676Z,2.30
2018-06-27T08:46:44.828Z,2.20
2018-06-27T08:49:11.964Z,2.50
2018-06-27T08:51:39.153Z,2.60
2018-06-27T08:54:06.309Z,2.63
2018-06-27T08:56:33.468Z,2.90
2018-06-27T08:59:00.670Z,3.00
2018-06-27T09:01:27.845Z,2.50
2018-06-27T09:03:55.041Z,2.67
2018-06-27T09:06:22.275Z,2.53
2018-06-27T09:08:49.432Z,3.00
2018-06-27T09:11:16.573Z,2.90
2018-06-27T09:13:43.738Z,2.53
2018-06-27T09:16:10.917Z,2.53
2018-06-27T09:18:38.117Z,2.90
2018-06-27T09:21:05.281Z,2.90
2018-06-27T09:23:32.446Z,2.83
2018-06-27T09:25:59.599Z,2.60
2018-06-27T09:28:26.701Z,2.80
2018-06-27T09:30:53.849Z,2.23
2018-06-27T09:33:20.958Z,4.30
2018-06-27T09:35:48.086Z,2.63
2018-06-27T09:38:15.213Z,2.80
2018-06-27T09:40:42.409Z,3.93
2018-06-27T09:43:09.549Z,2.80
2018-06-27T09:45:36.697Z,2.60
2018-06-27T09:48:03.859Z,2.63
2018-06-27T09:50:31.004Z,2.50
2018-06-27T09:52:58.105Z,2.80
2018-06-27T09:55:25.268Z,2.20
2018-06-27T09:57:52.418Z,3.97
2018-06-27T10:00:25.294Z,2.83
2018-06-27T10:02:52.480Z,2.63
2018-06-27T10:05:19.648Z,2.27
2018-06-27T10:07:46.835Z,2.43
2018-06-27T10:10:13.921Z,2.40
2018-06-27T10:12:41.093Z,2.40
2018-06-27T10:15:08.602Z,2.17
2018-06-27T10:17:35.736Z,2.10
2018-06-27T10:20:03.189Z,2.03
2018-06-27T10:22:30.413Z,2.30
2018-06-27T10:24:57.425Z,1.93
2018-06-27T10:27:24.595Z,2.07
2018-06-27T10:29:51.756Z,2.20
2018-06-27T10:32:18.925Z,1.70
2018-06-27T10:34:46.059Z,1.80
2018-06-27T10:37:13.256Z,1.67
2018-06-27T10:39:40.379Z,1.80
2018-06-27T10:42:07.558Z,2.27
2018-06-27T10:44:34.777Z,1.70
2018-06-27T10:47:01.982Z,1.70
2018-06-27T10:49:29.140Z,2.00
2018-06-27T10:51:56.317Z,1.70
2018-06-27T10:54:23.452Z,1.80
2018-06-27T10:56:50.738Z,1.83
2018-06-27T10:59:17.977Z,1.97
2018-06-27T11:01:45.121Z,1.77
2018-06-27T11:04:12.254Z,2.00
2018-06-27T11:06:39.486Z,2.43
2018-06-27T11:09:07.288Z,2.50
2018-06-27T11:11:34.478Z,1.80
2018-06-27T11:14:01.748Z,2.00
2018-06-27T11:16:28.809Z,2.10
2018-06-27T11:18:55.955Z,1.63
2018-06-27T11:21:23.071Z,2.30
2018-06-27T11:23:50.214Z,1.80
2018-06-27T11:26:17.393Z,1.90
2018-06-27T11:28:44.588Z,1.90
2018-06-27T11:31:11.734Z,1.70
2018-06-27T11:33:38.930Z,2.10
2018-06-27T11:36:06.122Z,2.00
2018-06-27T11:38:33.383Z,1.87
2018-06-27T11:41:00.529Z,1.70
2018-06-27T11:43:27.649Z,2.20
2018-06-27T11:45:55.116Z,2.03
2018-06-27T11:48:22.328Z,2.60
2018-06-27T11:50:49.485Z,1.90
2018-06-27T11:53:16.690Z,1.97
2018-06-27T11:55:43.765Z,2.53
2018-06-27T11:58:10.932Z,2.43
2018-06-27T12:00:38.094Z,2.00
2018-06-27T12:03:05.286Z,1.90
2018-06-27T12:05:32.444Z,2.10
2018-06-27T12:07:59.613Z,1.77
2018-06-27T12:10:26.735Z,1.80
2018-06-27T12:12:53.917Z,2.20
2018-06-27T12:15:21.065Z,2.37
2018-06-27T12:17:48.257Z,2.30
2018-06-27T12:20:15.552Z,2.20
2018-06-27T12:22:42.708Z,2.47
2018-06-27T12:25:09.856Z,3.27
2018-06-27T12:27:37.042Z,2.50
2018-06-27T12:30:04.541Z,2.33
2018-06-27T12:32:31.870Z,2.60
2018-06-27T12:34:58.923Z,2.27
2018-06-27T12:37:26.100Z,2.10
2018-06-27T12:39:53.249Z,2.33
2018-06-27T12:42:20.460Z,3.33
2018-06-27T12:44:47.611Z,3.10
2018-06-27T12:47:14.876Z,2.50
2018-06-27T12:49:42.025Z,2.40
2018-06-27T12:52:09.224Z,2.00
2018-06-27T12:54:36.448Z,2.27
2018-06-27T12:57:03.617Z,2.30
2018-06-27T12:59:30.737Z,2.30
2018-06-27T13:01:57.852Z,2.10
2018-06-27T13:04:24.965Z,2.10
2018-06-27T13:06:52.096Z,2.10
2018-06-27T13:09:19.350Z,1.83
2018-06-27T13:11:46.497Z,1.70
2018-06-27T13:14:13.662Z,1.80
2018-06-27T13:16:40.808Z,2.00
2018-06-27T13:19:08.009Z,2.53
2018-06-27T13:21:35.132Z,2.00
2018-06-27T13:24:02.322Z,1.93
2018-06-27T13:26:29.493Z,2.13
2018-06-27T13:28:56.703Z,2.60
2018-06-27T13:31:24.239Z,2.10
2018-06-27T13:33:51.469Z,2.17
2018-06-27T13:36:18.662Z,1.90
2018-06-27T13:38:45.851Z,2.10
2018-06-27T13:41:12.998Z,1.70
2018-06-27T13:43:40.179Z,2.20
2018-06-27T13:46:07.391Z,2.33
2018-06-27T13:48:34.536Z,2.17
2018-06-27T13:51:01.748Z,2.00
2018-06-27T13:53:28.924Z,2.30
2018-06-27T13:55:56.060Z,2.30
2018-06-27T13:58:23.204Z,1.90
2018-06-27T14:00:50.464Z,1.90
2018-06-27T14:03:17.613Z,2.50
2018-06-27T14:05:44.768Z,1.67
2018-06-27T14:08:11.927Z,1.60
2018-06-27T14:10:39.092Z,2.07
2018-06-27T14:13:06.276Z,2.23
2018-06-27T14:15:33.437Z,2.50
2018-06-27T14:18:00.677Z,1.87
2018-06-27T14:20:28.030Z,1.90
2018-06-27T14:22:55.170Z,1.87
2018-06-27T14:25:22.324Z,1.90
2018-06-27T14:27:49.504Z,1.60
2018-06-27T14:30:16.628Z,1.90
2018-06-27T14:32:43.745Z,1.57
2018-06-27T14:35:10.870Z,2.17
2018-06-27T14:37:38.004Z,1.50
2018-06-27T14:40:05.397Z,1.70
2018-06-27T14:42:32.453Z,2.33
2018-06-27T14:44:59.624Z,2.17
2018-06-27T14:47:26.829Z,1.97
2018-06-27T14:49:54.007Z,1.97
2018-06-27T14:52:21.251Z,2.10
2018-06-27T14:54:49.015Z,2.23
2018-06-27T14:57:16.214Z,1.77
2018-06-27T14:59:43.498Z,2.87
2018-06-27T15:02:10.600Z,2.50
2018-06-27T15:04:37.736Z,2.20
2018-06-27T15:07:04.940Z,2.40
2018-06-27T15:09:32.065Z,2.40
2018-06-27T15:11:59.193Z,2.60
2018-06-27T15:14:26.352Z,2.80
2018-06-27T15:16:53.544Z,2.13
2018-06-27T15:19:20.721Z,2.60
2018-06-27T15:21:47.983Z,2.57
2018-06-27T15:24:15.133Z,2.30
2018-06-27T15:26:42.381Z,5.30
2018-06-27T15:29:09.616Z,3.27
2018-06-27T15:31:36.774Z,2.43
2018-06-27T15:34:03.942Z,4.00
2018-06-27T15:36:31.135Z,6.07
2018-06-27T15:38:58.270Z,3.00
2018-06-27T15:41:25.435Z,2.77
2018-06-27T15:43:52.884Z,2.70
2018-06-27T15:46:20.098Z,2.20
2018-06-27T15:48:47.284Z,2.80
2018-06-27T15:51:14.433Z,2.90
2018-06-27T15:53:41.569Z,2.83
2018-06-27T15:56:08.728Z,2.90
2018-06-27T15:58:35.825Z,2.20
2018-06-27T16:01:03.072Z,2.43
2018-06-27T16:03:30.272Z,2.40
2018-06-27T16:05:57.401Z,2.60
2018-06-27T16:08:24.571Z,2.23
2018-06-27T16:10:51.759Z,2.73
2018-06-27T16:13:18.990Z,2.77
2018-06-27T16:15:46.206Z,2.87
2018-06-27T16:18:13.429Z,3.00
2018-06-27T16:20:40.626Z,2.70
2018-06-27T16:23:07.859Z,2.40
2018-06-27T16:25:34.993Z,2.53
2018-06-27T16:28:02.135Z,3.07
2018-06-27T16:30:29.356Z,2.83
2018-06-27T16:32:56.490Z,2.63
2018-06-27T16:35:23.713Z,2.53
2018-06-27T16:37:50.917Z,3.27
2018-06-27T16:40:18.077Z,3.13
2018-06-27T16:42:45.243Z,2.97
2018-06-27T16:45:12.477Z,2.57
2018-06-27T16:47:39.653Z,3.43
2018-06-27T16:50:07.499Z,2.70
2018-06-27T16:52:34.685Z,2.63
2018-06-27T16:55:01.869Z,3.33
2018-06-27T16:57:29.157Z,3.23
2018-06-27T16:59:56.292Z,2.70
2018-06-27T17:02:23.400Z,3.40
2018-06-27T17:04:50.578Z,3.60
2018-06-27T17:07:17.749Z,3.20
2018-06-27T17:09:44.890Z,3.53
2018-06-27T17:12:12.123Z,3.60
2018-06-27T17:14:39.241Z,3.13
2018-06-27T17:17:06.468Z,3.13
2018-06-27T17:19:33.628Z,3.40
2018-06-27T17:22:00.815Z,3.50
2018-06-27T17:24:28.013Z,3.40
2018-06-27T17:26:55.161Z,3.50
2018-06-27T17:29:22.312Z,3.13
2018-06-27T17:31:49.489Z,3.73
2018-06-27T17:34:16.631Z,3.00
2018-06-27T17:36:43.860Z,3.63
2018-06-27T17:39:11.041Z,3.53
2018-06-27T17:41:38.812Z,3.03
2018-06-27T17:44:06.131Z,3.77
2018-06-27T17:46:33.317Z,3.50
2018-06-27T17:49:00.494Z,3.67
2018-06-27T17:51:27.687Z,3.93
2018-06-27T17:53:54.845Z,3.93
2018-06-27T17:56:21.971Z,4.33
2018-06-27T17:58:49.137Z,5.23
2018-06-27T18:01:16.314Z,5.00
2018-06-27T18:03:42.935Z,16.40
2018-06-27T18:06:10.061Z,5.40
2018-06-27T18:08:37.316Z,4.87
2018-06-27T18:11:04.461Z,5.20
2018-06-27T18:13:31.606Z,5.67
2018-06-27T18:15:58.733Z,5.43
2018-06-27T18:18:25.937Z,4.97
2018-06-27T18:20:52.527Z,4.67
2018-06-27T18:23:19.702Z,4.83
2018-06-27T18:25:46.905Z,4.37
2018-06-27T18:28:14.044Z,5.10
2018-06-27T18:30:41.205Z,3.60
2018-06-27T18:33:08.364Z,4.93
2018-06-27T18:35:35.505Z,4.47
2018-06-27T18:38:02.694Z,5.00
2018-06-27T18:40:29.832Z,6.10
2018-06-27T18:42:56.972Z,4.03
2018-06-27T18:45:23.543Z,4.13
2018-06-27T18:47:50.693Z,4.50
2018-06-27T18:50:17.849Z,5.17
2018-06-27T18:52:44.988Z,5.20
2018-06-27T18:55:12.178Z,4.93
2018-06-27T18:57:39.304Z,5.20
2018-06-27T19:00:07.967Z,4.83
2018-06-27T19:02:35.152Z,5.17
2018-06-27T19:05:02.470Z,4.57
2018-06-27T19:07:29.645Z,5.67
2018-06-27T19:09:56.801Z,5.00
2018-06-27T19:12:24.011Z,5.27
2018-06-27T19:14:51.121Z,4.37
2018-06-27T19:17:18.292Z,3.23
2018-06-27T19:19:45.408Z,5.10
2018-06-27T19:22:12.597Z,4.10
2018-06-27T19:24:39.693Z,4.90
2018-06-27T19:27:06.864Z,4.20
2018-06-27T19:29:34.068Z,4.47
2018-06-27T19:32:01.231Z,3.60
2018-06-27T19:34:28.394Z,3.93
2018-06-27T19:36:55.557Z,3.50
2018-06-27T19:39:22.765Z,3.70
2018-06-27T19:41:49.948Z,3.87
2018-06-27T19:44:17.057Z,3.50
2018-06-27T19:46:44.254Z,3.17
2018-06-27T19:49:11.361Z,4.00
2018-06-27T19:51:38.617Z,3.47
2018-06-27T19:54:05.793Z,3.27
2018-06-27T19:56:32.975Z,4.00
2018-06-27T19:59:00.116Z,3.80
2018-06-27T20:01:27.300Z,4.10
2018-06-27T20:03:54.492Z,4.70
2018-06-27T20:06:21.617Z,4.30
2018-06-27T20:08:48.788Z,6.93
2018-06-27T20:11:15.917Z,7.53
2018-06-27T20:13:43.057Z,6.63
2018-06-27T20:16:10.185Z,7.13
2018-06-27T20:18:37.337Z,6.90
2018-06-27T20:21:04.479Z,6.40
2018-06-27T20:23:31.678Z,6.73
2018-06-27T20:25:58.797Z,6.23
2018-06-27T20:28:25.924Z,7.10
2018-06-27T20:30:53.313Z,6.23
2018-06-27T20:33:20.468Z,5.23
2018-06-27T20:35:47.657Z,5.30
2018-06-27T20:38:14.865Z,5.40
2018-06-27T20:40:42.039Z,4.27
2018-06-27T20:43:09.279Z,4.17
2018-06-27T20:45:36.434Z,4.23
2018-06-27T20:48:03.710Z,4.40
2018-06-27T20:50:30.843Z,4.30
2018-06-27T20:52:59.009Z,4.00
2018-06-27T20:55:26.256Z,4.93
2018-06-27T20:57:53.497Z,4.50
2018-06-27T21:00:20.737Z,3.83
2018-06-27T21:02:48.006Z,4.50
2018-06-27T21:05:15.131Z,4.63
2018-06-27T21:07:42.335Z,3.67
2018-06-27T21:10:09.522Z,4.27
2018-06-27T21:12:36.689Z,3.77
2018-06-27T21:15:04.193Z,4.60
2018-06-27T21:17:31.352Z,4.37
2018-06-27T21:19:58.878Z,4.80
2018-06-27T21:22:26.050Z,4.17
2018-06-27T21:24:53.180Z,3.90
2018-06-27T21:27:20.327Z,4.90
2018-06-27T21:29:47.507Z,4.53
2018-06-27T21:32:14.696Z,4.43
2018-06-27T21:34:41.904Z,4.53
2018-06-27T21:37:09.020Z,4.83
2018-06-27T21:39:36.144Z,4.43
2018-06-27T21:42:03.337Z,5.60
2018-06-27T21:44:30.517Z,3.70
2018-06-27T21:46:57.693Z,6.30
2018-06-27T21:49:24.826Z,4.23
2018-06-27T21:51:51.992Z,4.13
2018-06-27T21:54:19.146Z,4.57
2018-06-27T21:56:46.245Z,5.70
2018-06-27T21:59:13.387Z,4.70
2018-06-27T22:01:41.693Z,4.93
2018-06-27T22:04:08.848Z,6.73
2018-06-27T22:06:35.997Z,5.93
2018-06-27T22:09:05.152Z,6.20
2018-06-27T22:11:32.277Z,5.60
2018-06-27T22:13:59.387Z,5.67
2018-06-27T22:16:26.513Z,5.87
2018-06-27T22:18:53.688Z,5.60
2018-06-27T22:21:20.798Z,6.33
2018-06-27T22:23:47.940Z,6.00
2018-06-27T22:26:15.101Z,5.13
2018-06-27T22:28:42.256Z,4.97
2018-06-27T22:31:09.751Z,6.20
2018-06-27T22:33:37.213Z,6.53
2018-06-27T22:36:04.467Z,5.87
2018-06-27T22:38:31.624Z,5.97
2018-06-27T22:40:58.778Z,5.80
2018-06-27T22:43:25.905Z,5.80
2018-06-27T22:45:53.071Z,5.87
2018-06-27T22:48:20.225Z,6.10
2018-06-27T22:50:47.430Z,6.03
2018-06-27T22:53:14.526Z,6.10
2018-06-27T22:55:41.683Z,5.90
2018-06-27T22:58:08.820Z,5.90
2018-06-27T23:00:35.944Z,6.30
2018-06-27T23:03:03.132Z,5.43
2018-06-27T23:05:30.351Z,6.33
2018-06-27T23:07:57.485Z,6.47
2018-06-27T23:10:24.620Z,6.43
2018-06-27T23:12:51.753Z,6.53
2018-06-27T23:15:18.905Z,6.70
2018-06-27T23:17:46.056Z,6.60
2018-06-27T23:20:13.163Z,6.43
2018-06-27T23:22:43.209Z,5.77
2018-06-27T23:25:10.417Z,6.20
2018-06-27T23:27:37.589Z,6.60
2018-06-27T23:30:05.208Z,6.20
2018-06-27T23:32:32.349Z,6.63
2018-06-27T23:34:59.441Z,6.80
2018-06-27T23:37:26.577Z,6.73
2018-06-27T23:39:53.701Z,6.77
2018-06-27T23:42:20.901Z,7.10
2018-06-27T23:44:48.084Z,6.13
2018-06-27T23:47:15.184Z,7.77
2018-06-27T23:49:42.476Z,6.60
2018-06-27T23:52:09.508Z,5.80
2018-06-27T23:54:36.593Z,7.73
2018-06-27T23:57:03.773Z,6.97
2018-06-27T23:59:30.907Z,8.40
